WetterOnline ( https://www.wetteronline.ch )

Wetter aktuell Hoyerswerda

Aktuelles Wetter: Hoyerswerda (116m)

6-stündlich | Neueste Meldungen
Ortszeit Temperatur Wetter
So, 25.08. 2:00 21.3° C wolkig
Sa, 24.08. 20:00 25.6° C wolkig
Sa, 24.08. 14:00 26.5° C leicht bewölkt
Sa, 24.08. 8:00 16.5° C wolkenlos
Sa, 24.08. 2:00 12.6° C wolkenlos
Fr, 23.08. 20:00 24.2° C wolkenlos
Fr, 23.08. 14:00 25.0° C wolkenlos
Fr, 23.08. 8:00 15.1° C wolkenlos
Ortszeit Temperatur Wetter
So, 25.08. 5:00 18.4° C wolkig
So, 25.08. 4:50 18.4° C wolkig
So, 25.08. 4:40 18.1° C wolkig
So, 25.08. 4:30 17.9° C bewölkt
So, 25.08. 4:20 17.9° C bewölkt
So, 25.08. 4:10 18.2° C bewölkt
So, 25.08. 4:00 18.6° C bewölkt
So, 25.08. 3:30 18.5° C starker Regen
So, 25.08. 3:00 19.2° C Regen
So, 25.08. 2:30 21.0° C fast wolkenlos
So, 25.08. 2:00 21.3° C wolkig
Ortszeit Relative Feuchte Sichtweite
So, 25.08. 2:00 69% 30 km
Sa, 24.08. 20:00 54% 40 km
Sa, 24.08. 14:00 49% 27 km
Sa, 24.08. 8:00 85% 17 km
Sa, 24.08. 2:00 96% 13 km
Fr, 23.08. 20:00 46% 14 km
Fr, 23.08. 14:00 45% 40 km
Fr, 23.08. 8:00 84% 15 km
Ortszeit Relative Feuchte Sichtweite
So, 25.08. 5:00 86% 20 km
So, 25.08. 4:50 86% -
So, 25.08. 4:40 90% -
So, 25.08. 4:30 95% 6 km
So, 25.08. 4:20 95% -
So, 25.08. 4:10 90% -
So, 25.08. 4:00 87% 21 km
So, 25.08. 3:30 86% 6 km
So, 25.08. 3:00 84% 8 km
So, 25.08. 2:30 70% 30 km
So, 25.08. 2:00 69% 30 km
Ortszeit Niederschlagsmenge Niederschlagsart
So, 25.08. 2:00 0.0 l/m2 in 6 Std. -
Sa, 24.08. 20:00 0.0 l/m2 in 12 Std. -
Sa, 24.08. 14:00 0.0 l/m2 in 6 Std. -
Sa, 24.08. 8:00 0.0 l/m2 in 12 Std. -
Sa, 24.08. 2:00 0.0 l/m2 in 6 Std. -
Fr, 23.08. 20:00 0.0 l/m2 in 12 Std. -
Fr, 23.08. 14:00 0.0 l/m2 in 6 Std. -
Fr, 23.08. 8:00 0.0 l/m2 in 12 Std. -
Ortszeit Niederschlagsmenge Niederschlagsart
So, 25.08. 5:00 0.0 l/m2 in 1 Std. Regen
So, 25.08. 4:50 keine Meldung -
So, 25.08. 4:40 keine Meldung -
So, 25.08. 4:30 0.0 l/m2 in 1 Std. -
So, 25.08. 4:20 keine Meldung -
So, 25.08. 4:10 keine Meldung -
So, 25.08. 4:00 5.4 l/m2 in 1 Std. Regen
So, 25.08. 3:30 4.0 l/m2 in 1 Std. -
So, 25.08. 3:00 0.2 l/m2 in 1 Std. Regen
So, 25.08. 2:30 0.0 l/m2 in 1 Std. -
So, 25.08. 2:00 0.0 l/m2 in 1 Std. -
Ortszeit Stärke Spitze Richtung
km/h Bft. km/h Grad Sektor
So, 25.08. 2:00 11 2 22 100° O
Sa, 24.08. 20:00 11 2 35 90° O
Sa, 24.08. 14:00 14 3 29 100° O
Sa, 24.08. 8:00 4 1 11 80° O
Sa, 24.08. 2:00 0 0 11 - -
Fr, 23.08. 20:00 6 1 24 120° SO
Fr, 23.08. 14:00 11 2 25 80° O
Fr, 23.08. 8:00 6 1 9 130° SO
Ortszeit Stärke Spitze Richtung
km/h Bft. km/h Grad Sektor
So, 25.08. 5:00 9 2 15 110° O
So, 25.08. 4:50 9 2 - 110° O
So, 25.08. 4:40 7 2 - 110° O
So, 25.08. 4:30 4 1 7 80° O
So, 25.08. 4:20 4 1 - 80° O
So, 25.08. 4:10 4 1 - 120° SO
So, 25.08. 4:00 9 2 22 100° O
So, 25.08. 3:30 17 3 22 100° O
So, 25.08. 3:00 11 2 20 90° O
So, 25.08. 2:30 11 2 18 110° O
So, 25.08. 2:00 11 2 22 100° O
Ortszeit Untergrenze Bedeckung Gattung
total tief tief mittel hoch
So, 25.08. 2:00 1500 m 6/8 4/8 - - -
Sa, 24.08. 20:00 8400 m 8/8 0/8 - - -
Sa, 24.08. 14:00 1350 m 6/8 1/8 - - -
Sa, 24.08. 8:00 - 0/8 0/8 - - -
Sa, 24.08. 2:00 - 0/8 0/8 - - -
Fr, 23.08. 20:00 - 0/8 0/8 - - -
Fr, 23.08. 14:00 - 0/8 0/8 - - -
Fr, 23.08. 8:00 - 0/8 0/8 - - -
Ortszeit Bedeckungsgrad in Achtel und Wolkenuntergrenze
So, 25.08. 5:00 6(1800m) 6(2400m)
So, 25.08. 4:50 6(1800m) 6(2400m)
So, 25.08. 4:40 6(1800m) 6(3600m)
So, 25.08. 4:30 7(1500m) 8(3600m) 7(3600m)
So, 25.08. 4:20 7(1500m) 8(3600m)
So, 25.08. 4:10 7(1500m) 8(3600m)
So, 25.08. 4:00 4(1800m) 8(3600m)
So, 25.08. 3:30 1(450m) 8(3300m) 8(4200m)
So, 25.08. 3:00 1(540m) 4(3900m) 6(4500m)
So, 25.08. 2:30 1(2400m)
So, 25.08. 2:00 2(1500m) 4(2100m) 6(3600m)
Ortszeit Luftdruck NN (hPa) Tendenz (hPa in 3 Std.)
So, 25.08. 2:00 1021 - 0,4
Sa, 24.08. 20:00 1021 - 0,5
Sa, 24.08. 14:00 1023 - 1,0
Sa, 24.08. 8:00 1024 - 0,4
Sa, 24.08. 2:00 1025 - 0,3
Fr, 23.08. 20:00 1024 - 0,5
Fr, 23.08. 14:00 1026 - 0,9
Fr, 23.08. 8:00 1027 + 0,5
Ortszeit Luftdruck NN (hPa) Tendenz (hPa in 3 Std.)
So, 25.08. 5:00 1021 - 0,2
So, 25.08. 4:50 1021 keine Meldung
So, 25.08. 4:40 1021 keine Meldung
So, 25.08. 4:30 1021 - 0,3
So, 25.08. 4:20 1021 keine Meldung
So, 25.08. 4:10 1021 keine Meldung
So, 25.08. 4:00 1021 - 0,6
So, 25.08. 3:30 1020 - 0,7
So, 25.08. 3:00 1021 - 0,4
So, 25.08. 2:30 1021 - 0,4
So, 25.08. 2:00 1021 - 0,4
Ortszeit Schneehöhe (cm)
So, 25.08. 2:00 -
Sa, 24.08. 20:00 -
Sa, 24.08. 14:00 -
Sa, 24.08. 8:00 -
Sa, 24.08. 2:00 -
Fr, 23.08. 20:00 -
Fr, 23.08. 14:00 -
Fr, 23.08. 8:00 -
Ortszeit Schneehöhe (cm)
So, 25.08. 5:00 -
So, 25.08. 4:50 -
So, 25.08. 4:40 -
So, 25.08. 4:30 -
So, 25.08. 4:20 -
So, 25.08. 4:10 -
So, 25.08. 4:00 -
So, 25.08. 3:30 -
So, 25.08. 3:00 -
So, 25.08. 2:30 -
So, 25.08. 2:00 -
Link zu dieser Seite / Seite empfehlen

Das Wetter in ...